sensor_id;sensor_type;location;lat;lon;timestamp;temperature;humidity
16801;DHT22;8518;53.236;10.384;2023-04-24T00:01:11;12.60;99.90
16801;DHT22;8518;53.236;10.384;2023-04-24T00:07:00;12.60;99.90
16801;DHT22;8518;53.236;10.384;2023-04-24T00:09:26;12.60;99.90
16801;DHT22;8518;53.236;10.384;2023-04-24T00:11:52;12.60;99.90
16801;DHT22;8518;53.236;10.384;2023-04-24T00:17:41;12.50;99.90
16801;DHT22;8518;53.236;10.384;2023-04-24T00:20:07;12.50;99.90
16801;DHT22;8518;53.236;10.384;2023-04-24T00:22:33;12.40;99.90
16801;DHT22;8518;53.236;10.384;2023-04-24T00:24:59;12.30;99.90
16801;DHT22;8518;53.236;10.384;2023-04-24T00:27:24;12.30;99.90
16801;DHT22;8518;53.236;10.384;2023-04-24T00:29:50;12.30;99.90
16801;DHT22;8518;53.236;10.384;2023-04-24T00:32:16;12.20;99.90
16801;DHT22;8518;53.236;10.384;2023-04-24T00:34:43;12.20;99.90
16801;DHT22;8518;53.236;10.384;2023-04-24T00:37:09;12.20;99.90
16801;DHT22;8518;53.236;10.384;2023-04-24T00:39:35;12.20;99.90
16801;DHT22;8518;53.236;10.384;2023-04-24T00:42:00;12.20;99.90
16801;DHT22;8518;53.236;10.384;2023-04-24T00:47:50;12.20;99.90
16801;DHT22;8518;53.236;10.384;2023-04-24T00:50:18;12.20;99.90
16801;DHT22;8518;53.236;10.384;2023-04-24T00:56:06;12.30;99.90
16801;DHT22;8518;53.236;10.384;2023-04-24T00:58:35;12.30;99.90
16801;DHT22;8518;53.236;10.384;2023-04-24T01:01:01;12.30;99.90
16801;DHT22;8518;53.236;10.384;2023-04-24T01:06:50;12.30;99.90
16801;DHT22;8518;53.236;10.384;2023-04-24T01:09:18;12.30;99.90
16801;DHT22;8518;53.236;10.384;2023-04-24T01:11:47;12.30;99.90
16801;DHT22;8518;53.236;10.384;2023-04-24T01:17:35;12.30;99.90
16801;DHT22;8518;53.236;10.384;2023-04-24T01:20:01;12.30;99.90
16801;DHT22;8518;53.236;10.384;2023-04-24T01:22:27;13.00;99.90
16801;DHT22;8518;53.236;10.384;2023-04-24T01:24:53;12.20;99.90
16801;DHT22;8518;53.236;10.384;2023-04-24T01:27:19;12.20;99.90
16801;DHT22;8518;53.236;10.384;2023-04-24T01:29:45;13.20;99.90
16801;DHT22;8518;53.236;10.384;2023-04-24T01:32:13;12.50;99.90
16801;DHT22;8518;53.236;10.384;2023-04-24T01:34:38;12.20;99.90
16801;DHT22;8518;53.236;10.384;2023-04-24T01:37:06;12.00;99.90
16801;DHT22;8518;53.236;10.384;2023-04-24T01:39:32;12.20;99.90
16801;DHT22;8518;53.236;10.384;2023-04-24T01:41:59;12.00;99.90
16801;DHT22;8518;53.236;10.384;2023-04-24T01:47:49;12.00;99.90
16801;DHT22;8518;53.236;10.384;2023-04-24T01:50:15;12.00;99.90
16801;DHT22;8518;53.236;10.384;2023-04-24T01:52:41;12.00;99.90
16801;DHT22;8518;53.236;10.384;2023-04-24T01:55:07;12.00;99.90
16801;DHT22;8518;53.236;10.384;2023-04-24T01:57:33;12.00;99.90
16801;DHT22;8518;53.236;10.384;2023-04-24T01:59:59;12.20;99.90
16801;DHT22;8518;53.236;10.384;2023-04-24T02:02:25;11.90;99.90
16801;DHT22;8518;53.236;10.384;2023-04-24T02:04:53;12.00;99.90
16801;DHT22;8518;53.236;10.384;2023-04-24T02:07:19;11.90;99.90
16801;DHT22;8518;53.236;10.384;2023-04-24T02:09:45;11.90;99.90
16801;DHT22;8518;53.236;10.384;2023-04-24T02:12:11;11.90;99.90
16801;DHT22;8518;53.236;10.384;2023-04-24T02:17:58;11.80;99.90
16801;DHT22;8518;53.236;10.384;2023-04-24T02:20:24;11.70;99.90
16801;DHT22;8518;53.236;10.384;2023-04-24T02:26:12;11.60;99.90
16801;DHT22;8518;53.236;10.384;2023-04-24T02:28:37;11.60;99.90
16801;DHT22;8518;53.236;10.384;2023-04-24T02:31:04;11.60;99.90
16801;DHT22;8518;53.236;10.384;2023-04-24T02:36:53;11.60;99.90
16801;DHT22;8518;53.236;10.384;2023-04-24T02:39:19;11.50;99.90
16801;DHT22;8518;53.236;10.384;2023-04-24T02:41:45;11.40;99.90
16801;DHT22;8518;53.236;10.384;2023-04-24T02:47:33;11.40;99.90
16801;DHT22;8518;53.236;10.384;2023-04-24T02:50:02;11.30;99.90
16801;DHT22;8518;53.236;10.384;2023-04-24T02:52:28;11.40;99.90
16801;DHT22;8518;53.236;10.384;2023-04-24T02:54:55;11.40;99.90
16801;DHT22;8518;53.236;10.384;2023-04-24T02:57:20;11.40;99.90
16801;DHT22;8518;53.236;10.384;2023-04-24T02:59:46;11.30;99.90
16801;DHT22;8518;53.236;10.384;2023-04-24T03:02:11;11.30;99.90
16801;DHT22;8518;53.236;10.384;2023-04-24T03:07:59;11.20;99.90
16801;DHT22;8518;53.236;10.384;2023-04-24T03:10:26;11.10;99.90
16801;DHT22;8518;53.236;10.384;2023-04-24T03:16:15;11.10;99.90
16801;DHT22;8518;53.236;10.384;2023-04-24T03:22:04;11.00;99.90
16801;DHT22;8518;53.236;10.384;2023-04-24T03:27:51;10.90;99.90
16801;DHT22;8518;53.236;10.384;2023-04-24T03:30:17;10.90;99.90
16801;DHT22;8518;53.236;10.384;2023-04-24T03:36:05;10.70;99.90
16801;DHT22;8518;53.236;10.384;2023-04-24T03:38:31;10.70;99.90
16801;DHT22;8518;53.236;10.384;2023-04-24T03:40:56;10.70;99.90
16801;DHT22;8518;53.236;10.384;2023-04-24T03:46:44;10.60;99.90
16801;DHT22;8518;53.236;10.384;2023-04-24T03:49:10;10.50;99.90
16801;DHT22;8518;53.236;10.384;2023-04-24T03:51:35;10.50;99.90
16801;DHT22;8518;53.236;10.384;2023-04-24T03:57:24;10.50;99.90
16801;DHT22;8518;53.236;10.384;2023-04-24T03:59:50;10.50;99.90
16801;DHT22;8518;53.236;10.384;2023-04-24T04:02:15;9.70;99.90
16801;DHT22;8518;53.236;10.384;2023-04-24T04:04:41;11.30;99.90
16801;DHT22;8518;53.236;10.384;2023-04-24T04:07:06;10.30;99.90
16801;DHT22;8518;53.236;10.384;2023-04-24T04:09:33;10.30;99.90
16801;DHT22;8518;53.236;10.384;2023-04-24T04:11:59;10.30;99.90
16801;DHT22;8518;53.236;10.384;2023-04-24T04:17:48;10.30;99.90
16801;DHT22;8518;53.236;10.384;2023-04-24T04:23:38;10.20;99.90
16801;DHT22;8518;53.236;10.384;2023-04-24T04:26:05;10.20;99.90
16801;DHT22;8518;53.236;10.384;2023-04-24T04:28:31;10.50;99.90
16801;DHT22;8518;53.236;10.384;2023-04-24T04:30:57;10.20;99.90
16801;DHT22;8518;53.236;10.384;2023-04-24T04:36:45;10.20;99.90
16801;DHT22;8518;53.236;10.384;2023-04-24T04:39:11;10.20;99.90
16801;DHT22;8518;53.236;10.384;2023-04-24T04:41:37;10.30;99.90
16801;DHT22;8518;53.236;10.384;2023-04-24T04:47:28;10.30;99.90
16801;DHT22;8518;53.236;10.384;2023-04-24T04:49:53;10.80;99.90
16801;DHT22;8518;53.236;10.384;2023-04-24T04:52:20;10.40;99.90
16801;DHT22;8518;53.236;10.384;2023-04-24T04:54:45;10.40;99.90
16801;DHT22;8518;53.236;10.384;2023-04-24T04:57:14;10.70;99.90
16801;DHT22;8518;53.236;10.384;2023-04-24T04:59:41;10.50;99.90
16801;DHT22;8518;53.236;10.384;2023-04-24T05:02:07;10.50;99.90
16801;DHT22;8518;53.236;10.384;2023-04-24T05:07:54;10.60;99.90
16801;DHT22;8518;53.236;10.384;2023-04-24T05:13:42;10.70;99.90
16801;DHT22;8518;53.236;10.384;2023-04-24T05:16:11;10.80;99.90
16801;DHT22;8518;53.236;10.384;2023-04-24T05:18:36;11.20;99.90
16801;DHT22;8518;53.236;10.384;2023-04-24T05:21:02;12.70;99.90
16801;DHT22;8518;53.236;10.384;2023-04-24T05:26:50;11.00;99.90
16801;DHT22;8518;53.236;10.384;2023-04-24T05:29:15;11.00;99.90
16801;DHT22;8518;53.236;10.384;2023-04-24T05:31:41;11.00;99.90
16801;DHT22;8518;53.236;10.384;2023-04-24T05:37:29;11.10;99.90
16801;DHT22;8518;53.236;10.384;2023-04-24T05:39:55;11.60;99.90
16801;DHT22;8518;53.236;10.384;2023-04-24T05:42:20;11.80;99.90
16801;DHT22;8518;53.236;10.384;2023-04-24T05:44:46;11.60;99.90
16801;DHT22;8518;53.236;10.384;2023-04-24T05:47:13;12.60;99.90
16801;DHT22;8518;53.236;10.384;2023-04-24T05:49:38;11.30;99.90
16801;DHT22;8518;53.236;10.384;2023-04-24T05:52:04;11.40;99.90
16801;DHT22;8518;53.236;10.384;2023-04-24T05:57:53;11.60;99.90
16801;DHT22;8518;53.236;10.384;2023-04-24T06:00:19;11.50;99.90
16801;DHT22;8518;53.236;10.384;2023-04-24T06:06:08;11.60;99.90
16801;DHT22;8518;53.236;10.384;2023-04-24T06:08:35;13.30;99.90
16801;DHT22;8518;53.236;10.384;2023-04-24T06:11:03;12.10;99.90
16801;DHT22;8518;53.236;10.384;2023-04-24T06:16:51;12.10;99.90
16801;DHT22;8518;53.236;10.384;2023-04-24T06:19:18;12.20;99.90
16801;DHT22;8518;53.236;10.384;2023-04-24T06:21:44;12.80;99.90
16801;DHT22;8518;53.236;10.384;2023-04-24T06:27:32;12.50;99.90
16801;DHT22;8518;53.236;10.384;2023-04-24T06:33:19;12.80;99.90
16801;DHT22;8518;53.236;10.384;2023-04-24T06:35:45;13.00;99.90
16801;DHT22;8518;53.236;10.384;2023-04-24T06:38:11;13.00;99.90
16801;DHT22;8518;53.236;10.384;2023-04-24T06:40:38;13.10;99.90
16801;DHT22;8518;53.236;10.384;2023-04-24T06:46:26;13.30;99.90
16801;DHT22;8518;53.236;10.384;2023-04-24T06:48:53;13.30;99.90
16801;DHT22;8518;53.236;10.384;2023-04-24T06:51:25;13.60;99.90
16801;DHT22;8518;53.236;10.384;2023-04-24T06:57:14;13.80;99.90
16801;DHT22;8518;53.236;10.384;2023-04-24T06:59:41;13.70;99.90
16801;DHT22;8518;53.236;10.384;2023-04-24T07:02:10;15.20;99.90
16801;DHT22;8518;53.236;10.384;2023-04-24T07:07:57;14.10;99.90
16801;DHT22;8518;53.236;10.384;2023-04-24T07:10:24;14.40;99.90
16801;DHT22;8518;53.236;10.384;2023-04-24T07:16:16;14.70;99.90
16801;DHT22;8518;53.236;10.384;2023-04-24T07:18:44;14.90;99.90
16801;DHT22;8518;53.236;10.384;2023-04-24T07:21:10;15.00;99.90
16801;DHT22;8518;53.236;10.384;2023-04-24T07:27:01;14.80;99.90
16801;DHT22;8518;53.236;10.384;2023-04-24T07:29:30;14.80;99.90
16801;DHT22;8518;53.236;10.384;2023-04-24T07:31:56;14.90;99.90
16801;DHT22;8518;53.236;10.384;2023-04-24T07:37:45;14.70;99.90
16801;DHT22;8518;53.236;10.384;2023-04-24T07:40:12;14.60;99.90
16801;DHT22;8518;53.236;10.384;2023-04-24T07:42:38;14.50;99.90
16801;DHT22;8518;53.236;10.384;2023-04-24T07:45:06;14.90;99.90
16801;DHT22;8518;53.236;10.384;2023-04-24T07:47:34;14.90;99.90
16801;DHT22;8518;53.236;10.384;2023-04-24T07:50:00;15.20;99.90
16801;DHT22;8518;53.236;10.384;2023-04-24T07:52:29;15.70;99.90
16801;DHT22;8518;53.236;10.384;2023-04-24T07:54:58;14.70;99.90
16801;DHT22;8518;53.236;10.384;2023-04-24T07:57:25;15.00;99.90
16801;DHT22;8518;53.236;10.384;2023-04-24T07:59:51;15.10;99.90
16801;DHT22;8518;53.236;10.384;2023-04-24T08:02:17;15.40;99.90
16801;DHT22;8518;53.236;10.384;2023-04-24T08:04:48;15.90;99.90
16801;DHT22;8518;53.236;10.384;2023-04-24T08:07:14;16.50;99.90
16801;DHT22;8518;53.236;10.384;2023-04-24T08:09:40;16.90;99.90
16801;DHT22;8518;53.236;10.384;2023-04-24T08:12:05;16.20;99.90
16801;DHT22;8518;53.236;10.384;2023-04-24T08:17:53;15.40;99.90
16801;DHT22;8518;53.236;10.384;2023-04-24T08:20:21;14.80;99.90
16801;DHT22;8518;53.236;10.384;2023-04-24T08:26:11;13.30;99.90
16801;DHT22;8518;53.236;10.384;2023-04-24T08:28:37;14.40;99.90
16801;DHT22;8518;53.236;10.384;2023-04-24T08:31:03;15.20;99.90
16801;DHT22;8518;53.236;10.384;2023-04-24T08:36:51;16.50;99.90
16801;DHT22;8518;53.236;10.384;2023-04-24T08:39:17;16.40;99.90
16801;DHT22;8518;53.236;10.384;2023-04-24T08:41:43;16.70;99.90
16801;DHT22;8518;53.236;10.384;2023-04-24T08:47:33;16.50;99.90
16801;DHT22;8518;53.236;10.384;2023-04-24T08:49:59;16.20;99.90
16801;DHT22;8518;53.236;10.384;2023-04-24T08:52:28;16.00;99.90
16801;DHT22;8518;53.236;10.384;2023-04-24T08:55:00;15.70;99.90
16801;DHT22;8518;53.236;10.384;2023-04-24T08:57:29;13.80;99.90
16801;DHT22;8518;53.236;10.384;2023-04-24T08:59:58;14.20;99.90
16801;DHT22;8518;53.236;10.384;2023-04-24T09:02:24;14.40;99.90
16801;DHT22;8518;53.236;10.384;2023-04-24T09:04:53;14.60;99.90
16801;DHT22;8518;53.236;10.384;2023-04-24T09:07:19;14.90;99.90
16801;DHT22;8518;53.236;10.384;2023-04-24T09:09:48;14.80;99.90
16801;DHT22;8518;53.236;10.384;2023-04-24T09:12:15;14.80;99.90
16801;DHT22;8518;53.236;10.384;2023-04-24T09:14:41;15.40;99.90
16801;DHT22;8518;53.236;10.384;2023-04-24T09:17:10;14.60;99.90
16801;DHT22;8518;53.236;10.384;2023-04-24T09:19:40;14.40;99.90
16801;DHT22;8518;53.236;10.384;2023-04-24T09:22:07;15.40;99.90
16801;DHT22;8518;53.236;10.384;2023-04-24T09:27:55;13.70;99.90
16801;DHT22;8518;53.236;10.384;2023-04-24T09:30:25;13.80;99.90
16801;DHT22;8518;53.236;10.384;2023-04-24T09:36:13;14.70;99.90
16801;DHT22;8518;53.236;10.384;2023-04-24T09:38:42;16.70;99.90
16801;DHT22;8518;53.236;10.384;2023-04-24T09:41:08;17.90;99.90
16801;DHT22;8518;53.236;10.384;2023-04-24T09:47:00;19.50;99.90
16801;DHT22;8518;53.236;10.384;2023-04-24T09:49:28;18.00;99.90
16801;DHT22;8518;53.236;10.384;2023-04-24T09:52:05;16.80;99.90
16801;DHT22;8518;53.236;10.384;2023-04-24T09:57:59;16.00;99.90
16801;DHT22;8518;53.236;10.384;2023-04-24T10:00:34;15.60;99.90
16801;DHT22;8518;53.236;10.384;2023-04-24T10:06:22;17.00;99.90
16801;DHT22;8518;53.236;10.384;2023-04-24T10:12:10;15.70;99.90
16801;DHT22;8518;53.236;10.384;2023-04-24T10:17:59;15.30;99.90
16801;DHT22;8518;53.236;10.384;2023-04-24T10:20:30;15.50;99.90
16801;DHT22;8518;53.236;10.384;2023-04-24T10:26:19;18.20;99.90
16801;DHT22;8518;53.236;10.384;2023-04-24T10:32:10;16.10;99.90
16801;DHT22;8518;53.236;10.384;2023-04-24T10:38:12;15.90;99.90
16801;DHT22;8518;53.236;10.384;2023-04-24T10:40:40;16.60;99.90
16801;DHT22;8518;53.236;10.384;2023-04-24T10:46:53;15.40;99.90
16801;DHT22;8518;53.236;10.384;2023-04-24T10:49:30;14.80;99.90
16801;DHT22;8518;53.236;10.384;2023-04-24T10:52:01;14.50;99.90
16801;DHT22;8518;53.236;10.384;2023-04-24T10:58:03;15.50;99.90
16801;DHT22;8518;53.236;10.384;2023-04-24T11:00:29;18.10;99.90
16801;DHT22;8518;53.236;10.384;2023-04-24T11:06:35;20.70;96.90
16801;DHT22;8518;53.236;10.384;2023-04-24T11:09:09;21.30;94.40
16801;DHT22;8518;53.236;10.384;2023-04-24T11:11:38;20.20;94.10
16801;DHT22;8518;53.236;10.384;2023-04-24T11:17:38;17.10;98.90
16801;DHT22;8518;53.236;10.384;2023-04-24T11:20:10;15.70;99.90
16801;DHT22;8518;53.236;10.384;2023-04-24T11:22:38;15.60;99.90
16801;DHT22;8518;53.236;10.384;2023-04-24T11:25:08;15.50;99.90
16801;DHT22;8518;53.236;10.384;2023-04-24T11:27:44;16.00;99.90
16801;DHT22;8518;53.236;10.384;2023-04-24T11:30:19;17.70;98.20
16801;DHT22;8518;53.236;10.384;2023-04-24T11:36:09;17.60;96.40
16801;DHT22;8518;53.236;10.384;2023-04-24T11:38:35;17.30;99.20
16801;DHT22;8518;53.236;10.384;2023-04-24T11:41:01;16.50;99.20
16801;DHT22;8518;53.236;10.384;2023-04-24T11:46:50;16.20;99.50
16801;DHT22;8518;53.236;10.384;2023-04-24T11:49:16;17.20;98.80
16801;DHT22;8518;53.236;10.384;2023-04-24T11:51:43;16.80;98.60
16801;DHT22;8518;53.236;10.384;2023-04-24T11:57:31;15.40;99.90
16801;DHT22;8518;53.236;10.384;2023-04-24T12:00:03;14.70;99.90
16801;DHT22;8518;53.236;10.384;2023-04-24T12:02:30;14.40;99.90
16801;DHT22;8518;53.236;10.384;2023-04-24T12:04:56;14.30;99.90
16801;DHT22;8518;53.236;10.384;2023-04-24T12:07:23;14.20;99.90
16801;DHT22;8518;53.236;10.384;2023-04-24T12:09:59;14.00;99.90
16801;DHT22;8518;53.236;10.384;2023-04-24T12:12:28;13.80;99.90
16801;DHT22;8518;53.236;10.384;2023-04-24T12:14:58;14.20;99.90
16801;DHT22;8518;53.236;10.384;2023-04-24T12:17:26;14.40;99.90
16801;DHT22;8518;53.236;10.384;2023-04-24T12:19:52;14.90;99.90
16801;DHT22;8518;53.236;10.384;2023-04-24T12:22:22;14.20;99.90
16801;DHT22;8518;53.236;10.384;2023-04-24T12:25:01;14.20;99.90
16801;DHT22;8518;53.236;10.384;2023-04-24T12:27:32;14.30;99.90
16801;DHT22;8518;53.236;10.384;2023-04-24T12:30:04;14.50;99.90
16801;DHT22;8518;53.236;10.384;2023-04-24T12:32:30;14.50;99.90
16801;DHT22;8518;53.236;10.384;2023-04-24T12:34:56;14.60;99.90
16801;DHT22;8518;53.236;10.384;2023-04-24T12:37:26;14.80;99.90
16801;DHT22;8518;53.236;10.384;2023-04-24T12:42:29;16.90;99.90
16801;DHT22;8518;53.236;10.384;2023-04-24T12:45:05;15.80;99.90
16801;DHT22;8518;53.236;10.384;2023-04-24T12:47:34;15.90;99.90
16801;DHT22;8518;53.236;10.384;2023-04-24T12:50:02;16.40;99.90
16801;DHT22;8518;53.236;10.384;2023-04-24T12:52:31;15.00;99.90
16801;DHT22;8518;53.236;10.384;2023-04-24T12:54:59;14.60;99.90
16801;DHT22;8518;53.236;10.384;2023-04-24T12:57:29;14.60;99.90
16801;DHT22;8518;53.236;10.384;2023-04-24T12:59:58;14.30;99.90
16801;DHT22;8518;53.236;10.384;2023-04-24T13:02:29;13.60;99.90
16801;DHT22;8518;53.236;10.384;2023-04-24T13:04:58;13.40;99.90
16801;DHT22;8518;53.236;10.384;2023-04-24T13:07:27;13.00;99.90
16801;DHT22;8518;53.236;10.384;2023-04-24T13:09:55;13.20;99.90
16801;DHT22;8518;53.236;10.384;2023-04-24T13:12:21;13.10;99.90
16801;DHT22;8518;53.236;10.384;2023-04-24T13:14:49;13.00;99.90
16801;DHT22;8518;53.236;10.384;2023-04-24T13:17:17;12.90;99.90
16801;DHT22;8518;53.236;10.384;2023-04-24T13:19:43;12.90;99.90
16801;DHT22;8518;53.236;10.384;2023-04-24T13:22:10;12.90;99.90
16801;DHT22;8518;53.236;10.384;2023-04-24T13:27:58;12.80;99.90
16801;DHT22;8518;53.236;10.384;2023-04-24T13:30:24;13.20;99.90
16801;DHT22;8518;53.236;10.384;2023-04-24T13:36:12;12.90;99.90
16801;DHT22;8518;53.236;10.384;2023-04-24T13:38:37;14.10;99.90
16801;DHT22;8518;53.236;10.384;2023-04-24T13:41:03;13.50;99.90
16801;DHT22;8518;53.236;10.384;2023-04-24T13:46:55;14.20;99.90
16801;DHT22;8518;53.236;10.384;2023-04-24T13:49:22;14.50;99.90
16801;DHT22;8518;53.236;10.384;2023-04-24T13:51:50;15.00;99.90
16801;DHT22;8518;53.236;10.384;2023-04-24T13:57:38;14.30;99.90
16801;DHT22;8518;53.236;10.384;2023-04-24T14:00:04;13.80;99.90
16801;DHT22;8518;53.236;10.384;2023-04-24T14:02:31;13.60;99.90
16801;DHT22;8518;53.236;10.384;2023-04-24T14:04:57;13.40;99.90
16801;DHT22;8518;53.236;10.384;2023-04-24T14:07:22;13.30;99.90
16801;DHT22;8518;53.236;10.384;2023-04-24T14:09:48;13.20;99.90
16801;DHT22;8518;53.236;10.384;2023-04-24T14:12:13;13.00;99.90
16801;DHT22;8518;53.236;10.384;2023-04-24T14:14:46;12.70;99.90
16801;DHT22;8518;53.236;10.384;2023-04-24T14:17:11;12.80;99.90
16801;DHT22;8518;53.236;10.384;2023-04-24T14:19:37;12.70;99.90
16801;DHT22;8518;53.236;10.384;2023-04-24T14:22:02;13.40;99.90
16801;DHT22;8518;53.236;10.384;2023-04-24T14:27:51;12.70;99.90
16801;DHT22;8518;53.236;10.384;2023-04-24T14:30:21;12.60;99.90
16801;DHT22;8518;53.236;10.384;2023-04-24T14:36:08;12.60;99.90
16801;DHT22;8518;53.236;10.384;2023-04-24T14:38:37;12.90;99.90
16801;DHT22;8518;53.236;10.384;2023-04-24T14:41:03;13.10;99.90
16801;DHT22;8518;53.236;10.384;2023-04-24T14:46:56;12.50;99.90
16801;DHT22;8518;53.236;10.384;2023-04-24T14:49:28;12.30;99.90
16801;DHT22;8518;53.236;10.384;2023-04-24T14:55:27;11.90;99.90
16801;DHT22;8518;53.236;10.384;2023-04-24T15:01:22;11.40;99.90
16801;DHT22;8518;53.236;10.384;2023-04-24T15:07:11;11.10;99.90
16801;DHT22;8518;53.236;10.384;2023-04-24T15:09:39;11.10;99.90
16801;DHT22;8518;53.236;10.384;2023-04-24T15:12:05;10.90;99.90
16801;DHT22;8518;53.236;10.384;2023-04-24T15:17:53;10.70;99.90
16801;DHT22;8518;53.236;10.384;2023-04-24T15:20:18;10.70;99.90
16801;DHT22;8518;53.236;10.384;2023-04-24T15:26:06;10.60;99.90
16801;DHT22;8518;53.236;10.384;2023-04-24T15:28:32;10.50;99.90
16801;DHT22;8518;53.236;10.384;2023-04-24T15:31:00;10.40;99.90
16801;DHT22;8518;53.236;10.384;2023-04-24T15:36:48;10.20;99.90
16801;DHT22;8518;53.236;10.384;2023-04-24T15:39:13;10.00;99.90
16801;DHT22;8518;53.236;10.384;2023-04-24T15:41:42;9.70;99.90
16801;DHT22;8518;53.236;10.384;2023-04-24T15:47:29;9.90;99.90
16801;DHT22;8518;53.236;10.384;2023-04-24T15:49:55;9.80;99.90
16801;DHT22;8518;53.236;10.384;2023-04-24T15:52:22;9.70;99.90
16801;DHT22;8518;53.236;10.384;2023-04-24T15:54:48;10.10;99.90
16801;DHT22;8518;53.236;10.384;2023-04-24T15:57:14;9.40;99.90
16801;DHT22;8518;53.236;10.384;2023-04-24T15:59:39;9.40;99.90
16801;DHT22;8518;53.236;10.384;2023-04-24T16:02:05;9.70;99.90
16801;DHT22;8518;53.236;10.384;2023-04-24T16:07:58;9.00;99.90
16801;DHT22;8518;53.236;10.384;2023-04-24T16:10:24;9.90;99.90
16801;DHT22;8518;53.236;10.384;2023-04-24T16:16:12;8.70;99.90
16801;DHT22;8518;53.236;10.384;2023-04-24T16:18:41;8.60;99.90
16801;DHT22;8518;53.236;10.384;2023-04-24T16:21:10;9.80;99.90
16801;DHT22;8518;53.236;10.384;2023-04-24T16:26:58;8.50;99.90
16801;DHT22;8518;53.236;10.384;2023-04-24T16:29:23;8.50;99.90
16801;DHT22;8518;53.236;10.384;2023-04-24T16:31:49;8.40;99.90
16801;DHT22;8518;53.236;10.384;2023-04-24T16:37:40;8.60;99.90
16801;DHT22;8518;53.236;10.384;2023-04-24T16:43:28;8.60;99.90
16801;DHT22;8518;53.236;10.384;2023-04-24T16:45:56;8.60;99.90
16801;DHT22;8518;53.236;10.384;2023-04-24T16:48:24;8.60;99.90
16801;DHT22;8518;53.236;10.384;2023-04-24T16:50:50;8.50;99.90
16801;DHT22;8518;53.236;10.384;2023-04-24T16:56:38;8.50;99.90
16801;DHT22;8518;53.236;10.384;2023-04-24T17:02:26;8.40;99.90
16801;DHT22;8518;53.236;10.384;2023-04-24T17:04:51;8.40;99.90
16801;DHT22;8518;53.236;10.384;2023-04-24T17:07:23;8.40;99.90
16801;DHT22;8518;53.236;10.384;2023-04-24T17:09:49;8.30;99.90
16801;DHT22;8518;53.236;10.384;2023-04-24T17:12:14;8.30;99.90
16801;DHT22;8518;53.236;10.384;2023-04-24T17:14:43;8.30;99.90
16801;DHT22;8518;53.236;10.384;2023-04-24T17:17:09;8.50;99.90
16801;DHT22;8518;53.236;10.384;2023-04-24T17:19:34;8.00;99.90
16801;DHT22;8518;53.236;10.384;2023-04-24T17:22:08;8.10;99.90
16801;DHT22;8518;53.236;10.384;2023-04-24T17:27:55;8.10;99.90
16801;DHT22;8518;53.236;10.384;2023-04-24T17:30:21;8.60;99.90
16801;DHT22;8518;53.236;10.384;2023-04-24T17:36:09;8.00;99.90
16801;DHT22;8518;53.236;10.384;2023-04-24T17:38:36;7.60;99.90
16801;DHT22;8518;53.236;10.384;2023-04-24T17:41:01;7.90;99.90
16801;DHT22;8518;53.236;10.384;2023-04-24T17:46:49;7.90;99.90
16801;DHT22;8518;53.236;10.384;2023-04-24T17:49:16;7.90;99.90
16801;DHT22;8518;53.236;10.384;2023-04-24T17:51:41;8.00;99.90
16801;DHT22;8518;53.236;10.384;2023-04-24T17:57:29;7.90;99.90
16801;DHT22;8518;53.236;10.384;2023-04-24T17:59:55;8.10;99.90
16801;DHT22;8518;53.236;10.384;2023-04-24T18:02:21;7.90;99.90
16801;DHT22;8518;53.236;10.384;2023-04-24T18:04:47;8.70;99.90
16801;DHT22;8518;53.236;10.384;2023-04-24T18:07:12;7.90;99.90
16801;DHT22;8518;53.236;10.384;2023-04-24T18:09:39;7.80;99.90
16801;DHT22;8518;53.236;10.384;2023-04-24T18:12:05;7.80;99.90
16801;DHT22;8518;53.236;10.384;2023-04-24T18:17:53;7.90;99.90
16801;DHT22;8518;53.236;10.384;2023-04-24T18:23:43;7.70;99.90
16801;DHT22;8518;53.236;10.384;2023-04-24T18:26:10;7.80;99.90
16801;DHT22;8518;53.236;10.384;2023-04-24T18:28:44;7.80;99.90
16801;DHT22;8518;53.236;10.384;2023-04-24T18:31:09;7.80;99.90
16801;DHT22;8518;53.236;10.384;2023-04-24T18:36:58;7.90;99.90
16801;DHT22;8518;53.236;10.384;2023-04-24T18:39:24;7.90;99.90
16801;DHT22;8518;53.236;10.384;2023-04-24T18:41:51;7.90;99.90
16801;DHT22;8518;53.236;10.384;2023-04-24T18:47:38;8.00;99.90
16801;DHT22;8518;53.236;10.384;2023-04-24T18:53:26;8.10;99.90
16801;DHT22;8518;53.236;10.384;2023-04-24T18:55:51;8.20;99.90
16801;DHT22;8518;53.236;10.384;2023-04-24T18:58:17;8.10;99.90
16801;DHT22;8518;53.236;10.384;2023-04-24T19:00:43;8.20;99.90
16801;DHT22;8518;53.236;10.384;2023-04-24T19:06:31;8.10;99.90
16801;DHT22;8518;53.236;10.384;2023-04-24T19:12:20;8.10;99.90
16801;DHT22;8518;53.236;10.384;2023-04-24T19:14:45;8.00;99.90
16801;DHT22;8518;53.236;10.384;2023-04-24T19:17:15;8.10;99.90
16801;DHT22;8518;53.236;10.384;2023-04-24T19:19:49;8.10;99.90
16801;DHT22;8518;53.236;10.384;2023-04-24T19:22:15;7.90;99.90
16801;DHT22;8518;53.236;10.384;2023-04-24T19:24:41;8.10;99.90
16801;DHT22;8518;53.236;10.384;2023-04-24T19:27:07;8.10;99.90
16801;DHT22;8518;53.236;10.384;2023-04-24T19:29:32;8.10;99.90
16801;DHT22;8518;53.236;10.384;2023-04-24T19:31:58;7.90;99.90
16801;DHT22;8518;53.236;10.384;2023-04-24T19:37:46;8.10;99.90
16801;DHT22;8518;53.236;10.384;2023-04-24T19:40:11;8.10;99.90
16801;DHT22;8518;53.236;10.384;2023-04-24T19:42:37;8.10;99.90
16801;DHT22;8518;53.236;10.384;2023-04-24T19:45:03;8.20;99.90
16801;DHT22;8518;53.236;10.384;2023-04-24T19:47:29;8.80;99.90
16801;DHT22;8518;53.236;10.384;2023-04-24T19:49:57;8.20;99.90
16801;DHT22;8518;53.236;10.384;2023-04-24T19:52:25;8.20;99.90
16801;DHT22;8518;53.236;10.384;2023-04-24T19:54:55;9.70;99.90
16801;DHT22;8518;53.236;10.384;2023-04-24T19:57:23;8.20;99.90
16801;DHT22;8518;53.236;10.384;2023-04-24T19:59:49;8.20;99.90
16801;DHT22;8518;53.236;10.384;2023-04-24T20:02:17;8.50;99.90
16801;DHT22;8518;53.236;10.384;2023-04-24T20:04:46;8.30;99.90
16801;DHT22;8518;53.236;10.384;2023-04-24T20:07:14;8.20;99.90
16801;DHT22;8518;53.236;10.384;2023-04-24T20:09:40;8.20;99.90
16801;DHT22;8518;53.236;10.384;2023-04-24T20:12:08;8.20;99.90
16801;DHT22;8518;53.236;10.384;2023-04-24T20:17:56;8.20;99.90
16801;DHT22;8518;53.236;10.384;2023-04-24T20:20:22;8.20;99.90
16801;DHT22;8518;53.236;10.384;2023-04-24T20:26:23;8.20;99.90
16801;DHT22;8518;53.236;10.384;2023-04-24T20:28:53;8.20;99.90
16801;DHT22;8518;53.236;10.384;2023-04-24T20:31:21;8.30;99.90
16801;DHT22;8518;53.236;10.384;2023-04-24T20:37:11;8.20;99.90
16801;DHT22;8518;53.236;10.384;2023-04-24T20:39:37;8.20;99.90
16801;DHT22;8518;53.236;10.384;2023-04-24T20:42:03;8.20;99.90
16801;DHT22;8518;53.236;10.384;2023-04-24T20:47:51;8.30;99.90
16801;DHT22;8518;53.236;10.384;2023-04-24T20:50:17;8.20;99.90
16801;DHT22;8518;53.236;10.384;2023-04-24T20:56:05;8.20;99.90
16801;DHT22;8518;53.236;10.384;2023-04-24T20:58:33;8.10;99.90
16801;DHT22;8518;53.236;10.384;2023-04-24T21:01:01;8.10;99.90